Impacts METAR Board INFO
IDs:

KDTW - Detroit Metro/Wayne, MI, US

Updated at: 1922 UTC 16 Jan 2018
Potential Impact None Slight Moderate High
Time16/07Z 16/08Z 16/09Z 16/10Z 16/11Z 16/12Z 16/13Z 16/14Z 16/15Z 16/16Z 16/17Z 16/18Z 16/19Z
VIS6 6 6 6 4 5 5 3 3 6 7 4 2.5
CIG35 5 10 15 14 20 20 30 30 30 40 45 25
CoverOVCOVCOVCOVCOVCOVCOVCOVCOVCOVCOVCOVCOVC
FltCatVFRIFRMVFRMVFRMVFRMVFRMVFRMVFRMVFRMVFRVFRMVFRIFR
WXBRBRBR-SN-SN-SN-SN-SN-SN-SN-SN-SN-SN
WDir200220240240250240230230230230220220230
WSpd8 10 10 11 10 8 12 10 11 12 9 11 9
WGst-- -- -- -- -- -- -- -- -- -- -- -- --
Raw hourly METARs
KDTW 160700Z 20008KT 6SM BR SCT007 BKN035 OVC055 M09/M11 A3030 RMK AO2 T10891106
KDTW 160753Z 22010KT 6SM BR BKN005 OVC025 M08/M11 A3031 RMK AO2 SLP276 T10831106
KDTW 160853Z 24010KT 6SM BR BKN010 OVC025 M08/M11 A3032 RMK AO2 SLP279 T10831106 51014
KDTW 160953Z 24011KT 6SM -SN OVC015 M09/M12 A3034 RMK AO2 SNB38 SLP286 P0000 T10891117
KDTW 161053Z 25010KT 4SM -SN SCT008 OVC014 M09/M12 A3035 RMK AO2 SLP288 P0000 T10941122
KDTW 161153Z 24008KT 5SM -SN SCT008 OVC020 M09/M13 A3037 RMK AO2 SLP295 P0000 60000 70006 T10941128 11067 21094 53009
KDTW 161253Z 23012KT 5SM -SN FEW008 OVC020 M10/M13 A3038 RMK AO2 SLP298 P0000 T11001128
KDTW 161353Z 23010KT 3SM -SN FEW020 OVC030 M11/M13 A3039 RMK AO2 SFC VIS 4 SLP302 P0000 T11061133
KDTW 161453Z 23011KT 3SM -SN OVC030 M11/M14 A3041 RMK AO2 SFC VIS 4 SLP309 P0000 60000 T11111139 53013
KDTW 161553Z 23012KT 6SM -SN OVC030 M12/M15 A3041 RMK AO2 SLP311 P0000 T11171150
KDTW 161653Z 22009KT 7SM -SN OVC040 M12/M15 A3041 RMK AO2 SLP309 P0000 T11171150
KDTW 161753Z 22011KT 4SM -SN FEW030 OVC045 M12/M15 A3039 RMK AO2 SLP304 P0000 60000 T11171150 11094 21117 58004 $
KDTW 161853Z 23009KT 2 1/2SM -SN BKN025 OVC035 M12/M14 A3039 RMK AO2 TWR VIS 4 SLP304 P0000 T11171144 $